sensor_id;sensor_type;location;lat;lon;timestamp;temperature;humidity
19544;DHT22;9917;51.256;7.152;2023-02-28T00:02:05;1.50;98.40
19544;DHT22;9917;51.256;7.152;2023-02-28T00:04:31;1.60;98.30
19544;DHT22;9917;51.256;7.152;2023-02-28T00:06:57;1.80;98.00
19544;DHT22;9917;51.256;7.152;2023-02-28T00:09:22;1.80;98.10
19544;DHT22;9917;51.256;7.152;2023-02-28T00:11:48;1.70;98.30
19544;DHT22;9917;51.256;7.152;2023-02-28T00:14:15;1.70;98.70
19544;DHT22;9917;51.256;7.152;2023-02-28T00:16:41;1.90;98.80
19544;DHT22;9917;51.256;7.152;2023-02-28T00:19:06;1.80;98.90
19544;DHT22;9917;51.256;7.152;2023-02-28T00:21:32;1.80;98.70
19544;DHT22;9917;51.256;7.152;2023-02-28T00:23:58;1.70;99.10
19544;DHT22;9917;51.256;7.152;2023-02-28T00:26:23;1.80;99.40
19544;DHT22;9917;51.256;7.152;2023-02-28T00:28:54;1.80;98.90
19544;DHT22;9917;51.256;7.152;2023-02-28T00:31:21;1.80;99.00
19544;DHT22;9917;51.256;7.152;2023-02-28T00:33:49;1.80;98.80
19544;DHT22;9917;51.256;7.152;2023-02-28T00:36:15;2.00;98.70
19544;DHT22;9917;51.256;7.152;2023-02-28T00:38:41;2.00;98.50
19544;DHT22;9917;51.256;7.152;2023-02-28T00:41:07;1.80;98.80
19544;DHT22;9917;51.256;7.152;2023-02-28T00:43:34;1.80;99.30
19544;DHT22;9917;51.256;7.152;2023-02-28T00:46:00;1.70;99.70
19544;DHT22;9917;51.256;7.152;2023-02-28T00:48:28;1.70;99.70
19544;DHT22;9917;51.256;7.152;2023-02-28T00:50:54;1.80;99.90
19544;DHT22;9917;51.256;7.152;2023-02-28T00:53:19;1.80;99.70
19544;DHT22;9917;51.256;7.152;2023-02-28T00:55:45;1.70;99.60
19544;DHT22;9917;51.256;7.152;2023-02-28T00:58:11;1.70;99.90
19544;DHT22;9917;51.256;7.152;2023-02-28T01:00:36;1.50;99.90
19544;DHT22;9917;51.256;7.152;2023-02-28T01:03:02;1.40;99.90
19544;DHT22;9917;51.256;7.152;2023-02-28T01:05:29;1.30;99.90
19544;DHT22;9917;51.256;7.152;2023-02-28T01:07:55;1.30;99.90
19544;DHT22;9917;51.256;7.152;2023-02-28T01:10:21;1.40;99.90
19544;DHT22;9917;51.256;7.152;2023-02-28T01:15:12;1.30;99.90
19544;DHT22;9917;51.256;7.152;2023-02-28T01:17:38;1.20;99.90
19544;DHT22;9917;51.256;7.152;2023-02-28T01:20:05;1.30;99.90
19544;DHT22;9917;51.256;7.152;2023-02-28T01:22:32;1.20;99.90
19544;DHT22;9917;51.256;7.152;2023-02-28T01:24:59;1.20;99.90
19544;DHT22;9917;51.256;7.152;2023-02-28T01:27:25;1.20;99.90
19544;DHT22;9917;51.256;7.152;2023-02-28T01:29:50;1.10;99.90
19544;DHT22;9917;51.256;7.152;2023-02-28T01:32:16;1.10;99.90
19544;DHT22;9917;51.256;7.152;2023-02-28T01:34:42;1.10;99.90
19544;DHT22;9917;51.256;7.152;2023-02-28T01:37:07;1.10;99.90
19544;DHT22;9917;51.256;7.152;2023-02-28T01:39:34;1.10;99.90
19544;DHT22;9917;51.256;7.152;2023-02-28T01:42:00;1.10;99.90
19544;DHT22;9917;51.256;7.152;2023-02-28T01:47:36;1.00;99.90
19544;DHT22;9917;51.256;7.152;2023-02-28T01:50:07;1.00;99.90
19544;DHT22;9917;51.256;7.152;2023-02-28T01:52:34;0.90;99.90
19544;DHT22;9917;51.256;7.152;2023-02-28T01:55:04;0.90;99.90
19544;DHT22;9917;51.256;7.152;2023-02-28T01:57:35;0.80;99.90
19544;DHT22;9917;51.256;7.152;2023-02-28T02:00:06;0.80;99.90
19544;DHT22;9917;51.256;7.152;2023-02-28T02:02:33;0.80;99.90
19544;DHT22;9917;51.256;7.152;2023-02-28T02:05:03;0.70;99.90
19544;DHT22;9917;51.256;7.152;2023-02-28T02:07:31;0.60;99.90
19544;DHT22;9917;51.256;7.152;2023-02-28T02:10:04;0.60;99.90
19544;DHT22;9917;51.256;7.152;2023-02-28T02:12:40;0.70;99.90
19544;DHT22;9917;51.256;7.152;2023-02-28T02:15:12;0.60;99.90
19544;DHT22;9917;51.256;7.152;2023-02-28T02:17:43;0.50;99.90
19544;DHT22;9917;51.256;7.152;2023-02-28T02:23:51;0.70;99.90
19544;DHT22;9917;51.256;7.152;2023-02-28T02:29:55;0.70;99.90
19544;DHT22;9917;51.256;7.152;2023-02-28T02:32:47;0.60;99.90
19544;DHT22;9917;51.256;7.152;2023-02-28T02:35:17;0.60;99.90
19544;DHT22;9917;51.256;7.152;2023-02-28T02:37:50;0.70;99.90
19544;DHT22;9917;51.256;7.152;2023-02-28T02:40:19;0.70;99.90
19544;DHT22;9917;51.256;7.152;2023-02-28T02:42:50;0.70;99.90
19544;DHT22;9917;51.256;7.152;2023-02-28T02:45:21;0.70;99.90
19544;DHT22;9917;51.256;7.152;2023-02-28T02:47:48;0.70;99.90
19544;DHT22;9917;51.256;7.152;2023-02-28T02:50:21;0.50;99.90
19544;DHT22;9917;51.256;7.152;2023-02-28T02:52:51;0.50;99.90
19544;DHT22;9917;51.256;7.152;2023-02-28T02:55:18;0.90;99.90
19544;DHT22;9917;51.256;7.152;2023-02-28T02:57:47;0.50;99.90
19544;DHT22;9917;51.256;7.152;2023-02-28T03:00:15;0.60;99.90
19544;DHT22;9917;51.256;7.152;2023-02-28T03:02:43;0.50;99.90
19544;DHT22;9917;51.256;7.152;2023-02-28T03:05:17;0.50;99.90
19544;DHT22;9917;51.256;7.152;2023-02-28T03:07:44;0.50;99.90
19544;DHT22;9917;51.256;7.152;2023-02-28T03:10:35;0.50;99.90
19544;DHT22;9917;51.256;7.152;2023-02-28T03:16:03;0.30;99.90
19544;DHT22;9917;51.256;7.152;2023-02-28T03:18:38;0.30;99.90
19544;DHT22;9917;51.256;7.152;2023-02-28T03:21:16;0.30;99.90
19544;DHT22;9917;51.256;7.152;2023-02-28T03:23:51;0.30;99.90
19544;DHT22;9917;51.256;7.152;2023-02-28T03:26:21;0.40;99.90
19544;DHT22;9917;51.256;7.152;2023-02-28T03:28:54;0.30;99.90
19544;DHT22;9917;51.256;7.152;2023-02-28T03:31:24;0.50;99.90
19544;DHT22;9917;51.256;7.152;2023-02-28T03:33:56;0.30;99.90
19544;DHT22;9917;51.256;7.152;2023-02-28T03:36:28;0.40;99.90
19544;DHT22;9917;51.256;7.152;2023-02-28T03:38:57;0.30;99.90
19544;DHT22;9917;51.256;7.152;2023-02-28T03:41:27;0.30;99.90
19544;DHT22;9917;51.256;7.152;2023-02-28T03:43:58;0.20;99.90
19544;DHT22;9917;51.256;7.152;2023-02-28T03:46:27;0.30;99.90
19544;DHT22;9917;51.256;7.152;2023-02-28T03:48:56;0.40;99.90
19544;DHT22;9917;51.256;7.152;2023-02-28T03:51:27;0.30;99.90
19544;DHT22;9917;51.256;7.152;2023-02-28T03:53:57;0.30;99.90
19544;DHT22;9917;51.256;7.152;2023-02-28T03:56:27;0.50;99.90
19544;DHT22;9917;51.256;7.152;2023-02-28T03:59:00;0.30;99.90
19544;DHT22;9917;51.256;7.152;2023-02-28T04:01:31;0.20;99.90
19544;DHT22;9917;51.256;7.152;2023-02-28T04:03:59;0.20;99.90
19544;DHT22;9917;51.256;7.152;2023-02-28T04:06:25;0.20;99.90
19544;DHT22;9917;51.256;7.152;2023-02-28T04:08:52;0.10;99.90
19544;DHT22;9917;51.256;7.152;2023-02-28T04:11:21;0.20;99.90
19544;DHT22;9917;51.256;7.152;2023-02-28T04:13:47;0.10;99.90
19544;DHT22;9917;51.256;7.152;2023-02-28T04:16:13;0.20;99.90
19544;DHT22;9917;51.256;7.152;2023-02-28T04:18:38;0.10;99.90
19544;DHT22;9917;51.256;7.152;2023-02-28T04:21:04;0.20;99.90
19544;DHT22;9917;51.256;7.152;2023-02-28T04:23:30;0.10;99.90
19544;DHT22;9917;51.256;7.152;2023-02-28T04:25:57;0.10;99.90
19544;DHT22;9917;51.256;7.152;2023-02-28T04:28:25;0.10;99.90
19544;DHT22;9917;51.256;7.152;2023-02-28T04:30:55;0.20;99.90
19544;DHT22;9917;51.256;7.152;2023-02-28T04:33:25;0.10;99.90
19544;DHT22;9917;51.256;7.152;2023-02-28T04:36:03;0.20;99.90
19544;DHT22;9917;51.256;7.152;2023-02-28T04:40:58;0.30;99.90
19544;DHT22;9917;51.256;7.152;2023-02-28T04:43:25;0.80;99.90
19544;DHT22;9917;51.256;7.152;2023-02-28T04:45:51;1.00;99.90
19544;DHT22;9917;51.256;7.152;2023-02-28T04:48:17;1.10;99.90
19544;DHT22;9917;51.256;7.152;2023-02-28T04:50:42;0.30;99.90
19544;DHT22;9917;51.256;7.152;2023-02-28T04:53:08;0.20;99.90
19544;DHT22;9917;51.256;7.152;2023-02-28T04:55:34;0.40;99.90
19544;DHT22;9917;51.256;7.152;2023-02-28T04:58:02;0.40;99.90
19544;DHT22;9917;51.256;7.152;2023-02-28T05:00:28;0.30;99.90
19544;DHT22;9917;51.256;7.152;2023-02-28T05:02:53;0.20;99.90
19544;DHT22;9917;51.256;7.152;2023-02-28T05:05:19;0.20;99.90
19544;DHT22;9917;51.256;7.152;2023-02-28T05:07:45;0.10;99.90
19544;DHT22;9917;51.256;7.152;2023-02-28T05:10:11;0.00;99.90
19544;DHT22;9917;51.256;7.152;2023-02-28T05:12:37;0.00;99.90
19544;DHT22;9917;51.256;7.152;2023-02-28T05:15:05;0.00;99.90
19544;DHT22;9917;51.256;7.152;2023-02-28T05:19:57;-0.20;99.90
19544;DHT22;9917;51.256;7.152;2023-02-28T05:22:23;-0.30;99.90
19544;DHT22;9917;51.256;7.152;2023-02-28T05:24:48;-0.30;99.90
19544;DHT22;9917;51.256;7.152;2023-02-28T05:27:14;-0.40;99.90
19544;DHT22;9917;51.256;7.152;2023-02-28T05:29:40;-0.30;99.90
19544;DHT22;9917;51.256;7.152;2023-02-28T05:32:08;-0.30;99.90
19544;DHT22;9917;51.256;7.152;2023-02-28T05:34:34;-0.20;99.90
19544;DHT22;9917;51.256;7.152;2023-02-28T05:36:59;-0.30;99.90
19544;DHT22;9917;51.256;7.152;2023-02-28T05:39:25;-0.40;99.90
19544;DHT22;9917;51.256;7.152;2023-02-28T05:41:51;-0.40;99.90
19544;DHT22;9917;51.256;7.152;2023-02-28T05:44:17;-0.50;99.90
19544;DHT22;9917;51.256;7.152;2023-02-28T05:46:42;-0.50;99.90
19544;DHT22;9917;51.256;7.152;2023-02-28T05:49:09;-0.40;99.90
19544;DHT22;9917;51.256;7.152;2023-02-28T05:51:35;-0.40;99.90
19544;DHT22;9917;51.256;7.152;2023-02-28T05:54:01;-0.40;99.90
19544;DHT22;9917;51.256;7.152;2023-02-28T05:56:27;-0.40;99.90
19544;DHT22;9917;51.256;7.152;2023-02-28T05:58:53;-0.30;99.90
19544;DHT22;9917;51.256;7.152;2023-02-28T06:01:22;-0.20;99.90
19544;DHT22;9917;51.256;7.152;2023-02-28T06:03:49;-0.30;99.90
19544;DHT22;9917;51.256;7.152;2023-02-28T06:06:16;-0.30;99.90
19544;DHT22;9917;51.256;7.152;2023-02-28T06:08:41;-0.20;99.90
19544;DHT22;9917;51.256;7.152;2023-02-28T06:11:07;-0.20;99.90
19544;DHT22;9917;51.256;7.152;2023-02-28T06:13:33;-0.30;99.90
19544;DHT22;9917;51.256;7.152;2023-02-28T06:16:00;-0.20;99.90
19544;DHT22;9917;51.256;7.152;2023-02-28T06:18:26;0.60;99.90
19544;DHT22;9917;51.256;7.152;2023-02-28T06:20:53;-0.30;99.90
19544;DHT22;9917;51.256;7.152;2023-02-28T06:23:20;-0.40;99.90
19544;DHT22;9917;51.256;7.152;2023-02-28T06:25:46;-0.50;99.90
19544;DHT22;9917;51.256;7.152;2023-02-28T06:28:12;-0.50;99.90
19544;DHT22;9917;51.256;7.152;2023-02-28T06:30:38;-0.40;99.90
19544;DHT22;9917;51.256;7.152;2023-02-28T06:33:04;-0.40;99.90
19544;DHT22;9917;51.256;7.152;2023-02-28T06:35:30;-0.30;99.90
19544;DHT22;9917;51.256;7.152;2023-02-28T06:37:56;-0.30;99.90
19544;DHT22;9917;51.256;7.152;2023-02-28T06:40:23;-0.40;99.90
19544;DHT22;9917;51.256;7.152;2023-02-28T06:42:49;-0.40;99.90
19544;DHT22;9917;51.256;7.152;2023-02-28T06:45:14;-0.50;99.90
19544;DHT22;9917;51.256;7.152;2023-02-28T06:47:41;0.00;99.90
19544;DHT22;9917;51.256;7.152;2023-02-28T06:50:10;-0.40;99.90
19544;DHT22;9917;51.256;7.152;2023-02-28T06:52:36;-0.30;99.90
19544;DHT22;9917;51.256;7.152;2023-02-28T06:55:02;-0.30;99.90
19544;DHT22;9917;51.256;7.152;2023-02-28T06:57:30;-0.30;99.90
19544;DHT22;9917;51.256;7.152;2023-02-28T06:59:57;-0.30;99.90
19544;DHT22;9917;51.256;7.152;2023-02-28T07:02:23;-0.10;99.90
19544;DHT22;9917;51.256;7.152;2023-02-28T07:04:48;-0.10;99.90
19544;DHT22;9917;51.256;7.152;2023-02-28T07:07:14;-0.20;99.90
19544;DHT22;9917;51.256;7.152;2023-02-28T07:09:40;-0.10;99.90
19544;DHT22;9917;51.256;7.152;2023-02-28T07:12:05;0.00;99.90
19544;DHT22;9917;51.256;7.152;2023-02-28T07:14:33;-0.10;99.90
19544;DHT22;9917;51.256;7.152;2023-02-28T07:16:58;-0.10;99.90
19544;DHT22;9917;51.256;7.152;2023-02-28T07:19:24;0.00;99.90
19544;DHT22;9917;51.256;7.152;2023-02-28T07:21:50;0.10;99.90
19544;DHT22;9917;51.256;7.152;2023-02-28T07:24:15;0.20;99.90
19544;DHT22;9917;51.256;7.152;2023-02-28T07:26:41;0.20;99.90
19544;DHT22;9917;51.256;7.152;2023-02-28T07:29:07;0.30;99.90
19544;DHT22;9917;51.256;7.152;2023-02-28T07:31:34;0.30;99.90
19544;DHT22;9917;51.256;7.152;2023-02-28T07:34:00;0.30;99.90
19544;DHT22;9917;51.256;7.152;2023-02-28T07:36:25;0.30;99.90
19544;DHT22;9917;51.256;7.152;2023-02-28T07:38:51;0.30;99.90
19544;DHT22;9917;51.256;7.152;2023-02-28T07:41:18;0.30;99.90
19544;DHT22;9917;51.256;7.152;2023-02-28T07:43:44;0.30;99.90
19544;DHT22;9917;51.256;7.152;2023-02-28T07:46:12;0.50;99.90
19544;DHT22;9917;51.256;7.152;2023-02-28T07:48:39;1.40;99.90
19544;DHT22;9917;51.256;7.152;2023-02-28T07:51:05;2.30;99.90
19544;DHT22;9917;51.256;7.152;2023-02-28T07:53:31;4.60;99.90
19544;DHT22;9917;51.256;7.152;2023-02-28T07:55:56;7.10;96.20
19544;DHT22;9917;51.256;7.152;2023-02-28T07:58:22;9.00;88.00
19544;DHT22;9917;51.256;7.152;2023-02-28T08:00:48;10.30;75.80
19544;DHT22;9917;51.256;7.152;2023-02-28T08:03:17;11.30;67.60
19544;DHT22;9917;51.256;7.152;2023-02-28T08:05:44;12.30;62.20
19544;DHT22;9917;51.256;7.152;2023-02-28T08:08:10;13.20;57.60
19544;DHT22;9917;51.256;7.152;2023-02-28T08:10:37;14.20;54.50
19544;DHT22;9917;51.256;7.152;2023-02-28T08:13:03;14.80;51.10
19544;DHT22;9917;51.256;7.152;2023-02-28T08:15:28;15.30;49.40
19544;DHT22;9917;51.256;7.152;2023-02-28T08:17:54;15.60;46.60
19544;DHT22;9917;51.256;7.152;2023-02-28T08:20:20;15.90;45.70
19544;DHT22;9917;51.256;7.152;2023-02-28T08:22:47;16.50;44.50
19544;DHT22;9917;51.256;7.152;2023-02-28T08:25:13;16.80;42.70
19544;DHT22;9917;51.256;7.152;2023-02-28T08:27:38;17.10;41.40
19544;DHT22;9917;51.256;7.152;2023-02-28T08:30:05;17.50;40.50
19544;DHT22;9917;51.256;7.152;2023-02-28T08:32:32;17.90;39.20
19544;DHT22;9917;51.256;7.152;2023-02-28T08:34:58;18.30;38.00
19544;DHT22;9917;51.256;7.152;2023-02-28T08:37:23;18.60;37.30
19544;DHT22;9917;51.256;7.152;2023-02-28T08:39:50;19.10;36.10
19544;DHT22;9917;51.256;7.152;2023-02-28T08:42:16;18.90;35.30
19544;DHT22;9917;51.256;7.152;2023-02-28T08:44:42;18.70;34.80
19544;DHT22;9917;51.256;7.152;2023-02-28T08:47:08;19.60;35.60
19544;DHT22;9917;51.256;7.152;2023-02-28T08:49:33;19.80;33.80
19544;DHT22;9917;51.256;7.152;2023-02-28T08:51:59;19.80;33.30
19544;DHT22;9917;51.256;7.152;2023-02-28T08:54:25;20.00;33.00
19544;DHT22;9917;51.256;7.152;2023-02-28T08:56:52;20.70;31.70
19544;DHT22;9917;51.256;7.152;2023-02-28T08:59:18;21.00;30.80
19544;DHT22;9917;51.256;7.152;2023-02-28T09:01:43;20.90;30.00
19544;DHT22;9917;51.256;7.152;2023-02-28T09:04:09;20.80;30.80
19544;DHT22;9917;51.256;7.152;2023-02-28T09:06:35;21.00;30.70
19544;DHT22;9917;51.256;7.152;2023-02-28T09:09:02;21.60;30.20
19544;DHT22;9917;51.256;7.152;2023-02-28T09:11:28;21.40;29.40
19544;DHT22;9917;51.256;7.152;2023-02-28T09:13:55;22.20;29.30
19544;DHT22;9917;51.256;7.152;2023-02-28T09:16:21;22.60;28.90
19544;DHT22;9917;51.256;7.152;2023-02-28T09:18:47;23.10;28.30
19544;DHT22;9917;51.256;7.152;2023-02-28T09:21:14;24.10;27.30
19544;DHT22;9917;51.256;7.152;2023-02-28T09:23:41;24.00;26.70
19544;DHT22;9917;51.256;7.152;2023-02-28T09:26:12;23.30;26.80
19544;DHT22;9917;51.256;7.152;2023-02-28T09:28:38;22.70;27.80
19544;DHT22;9917;51.256;7.152;2023-02-28T09:31:05;23.50;27.50
19544;DHT22;9917;51.256;7.152;2023-02-28T09:33:31;23.60;26.70
19544;DHT22;9917;51.256;7.152;2023-02-28T09:35:59;23.30;26.30
19544;DHT22;9917;51.256;7.152;2023-02-28T09:38:25;21.50;27.40
19544;DHT22;9917;51.256;7.152;2023-02-28T09:40:52;19.80;28.50
19544;DHT22;9917;51.256;7.152;2023-02-28T09:43:22;18.90;29.90
19544;DHT22;9917;51.256;7.152;2023-02-28T09:45:50;18.90;30.20
19544;DHT22;9917;51.256;7.152;2023-02-28T09:48:21;17.90;30.40
19544;DHT22;9917;51.256;7.152;2023-02-28T09:50:50;16.30;31.70
19544;DHT22;9917;51.256;7.152;2023-02-28T09:53:21;14.90;34.40
19544;DHT22;9917;51.256;7.152;2023-02-28T09:55:51;13.90;35.40
19544;DHT22;9917;51.256;7.152;2023-02-28T09:58:22;12.70;36.40
19544;DHT22;9917;51.256;7.152;2023-02-28T10:00:57;11.80;37.70
19544;DHT22;9917;51.256;7.152;2023-02-28T10:03:32;11.40;38.50
19544;DHT22;9917;51.256;7.152;2023-02-28T10:06:06;11.00;39.00
19544;DHT22;9917;51.256;7.152;2023-02-28T10:08:37;10.60;40.00
19544;DHT22;9917;51.256;7.152;2023-02-28T10:11:07;10.40;40.10
19544;DHT22;9917;51.256;7.152;2023-02-28T10:13:35;10.10;39.90
19544;DHT22;9917;51.256;7.152;2023-02-28T10:16:05;10.00;41.90
19544;DHT22;9917;51.256;7.152;2023-02-28T10:18:40;10.30;41.50
19544;DHT22;9917;51.256;7.152;2023-02-28T10:21:15;10.80;42.00
19544;DHT22;9917;51.256;7.152;2023-02-28T10:23:43;11.50;40.20
19544;DHT22;9917;51.256;7.152;2023-02-28T10:26:12;11.50;40.60
19544;DHT22;9917;51.256;7.152;2023-02-28T10:28:39;12.50;40.70
19544;DHT22;9917;51.256;7.152;2023-02-28T10:31:05;14.00;37.90
19544;DHT22;9917;51.256;7.152;2023-02-28T10:33:35;16.50;37.20
19544;DHT22;9917;51.256;7.152;2023-02-28T10:36:02;18.10;31.60
19544;DHT22;9917;51.256;7.152;2023-02-28T10:38:33;20.20;32.40
19544;DHT22;9917;51.256;7.152;2023-02-28T10:41:06;22.30;29.50
19544;DHT22;9917;51.256;7.152;2023-02-28T10:43:32;24.00;28.30
19544;DHT22;9917;51.256;7.152;2023-02-28T10:46:02;25.20;26.40
19544;DHT22;9917;51.256;7.152;2023-02-28T10:48:36;24.60;26.40
19544;DHT22;9917;51.256;7.152;2023-02-28T10:51:04;24.70;25.30
19544;DHT22;9917;51.256;7.152;2023-02-28T10:53:37;25.20;25.40
19544;DHT22;9917;51.256;7.152;2023-02-28T10:56:05;25.90;25.10
19544;DHT22;9917;51.256;7.152;2023-02-28T10:58:42;25.10;24.60
19544;DHT22;9917;51.256;7.152;2023-02-28T11:01:14;24.40;25.50
19544;DHT22;9917;51.256;7.152;2023-02-28T11:03:42;24.80;25.30
19544;DHT22;9917;51.256;7.152;2023-02-28T11:06:12;24.80;24.70
19544;DHT22;9917;51.256;7.152;2023-02-28T11:08:45;23.40;25.00
19544;DHT22;9917;51.256;7.152;2023-02-28T11:11:11;22.00;25.80
19544;DHT22;9917;51.256;7.152;2023-02-28T11:13:37;21.90;26.30
19544;DHT22;9917;51.256;7.152;2023-02-28T11:16:04;22.20;25.80
19544;DHT22;9917;51.256;7.152;2023-02-28T11:18:37;23.30;25.40
19544;DHT22;9917;51.256;7.152;2023-02-28T11:21:06;23.60;25.50
19544;DHT22;9917;51.256;7.152;2023-02-28T11:23:35;23.90;25.60
19544;DHT22;9917;51.256;7.152;2023-02-28T11:26:04;25.50;24.20
19544;DHT22;9917;51.256;7.152;2023-02-28T11:28:31;25.50;24.20
19544;DHT22;9917;51.256;7.152;2023-02-28T11:31:04;24.70;24.30
19544;DHT22;9917;51.256;7.152;2023-02-28T11:33:31;24.30;25.30
19544;DHT22;9917;51.256;7.152;2023-02-28T11:36:01;25.60;24.10
19544;DHT22;9917;51.256;7.152;2023-02-28T11:38:28;25.90;24.90
19544;DHT22;9917;51.256;7.152;2023-02-28T11:41:11;25.80;24.30
19544;DHT22;9917;51.256;7.152;2023-02-28T11:46:39;26.50;24.10
19544;DHT22;9917;51.256;7.152;2023-02-28T11:49:17;26.80;23.70
19544;DHT22;9917;51.256;7.152;2023-02-28T11:51:49;26.70;23.50
19544;DHT22;9917;51.256;7.152;2023-02-28T11:54:29;26.70;23.90
19544;DHT22;9917;51.256;7.152;2023-02-28T11:57:00;27.60;24.20
19544;DHT22;9917;51.256;7.152;2023-02-28T11:59:49;27.70;23.90
19544;DHT22;9917;51.256;7.152;2023-02-28T12:02:24;28.00;23.70
19544;DHT22;9917;51.256;7.152;2023-02-28T12:04:59;28.80;23.10
19544;DHT22;9917;51.256;7.152;2023-02-28T12:07:42;29.00;22.20
19544;DHT22;9917;51.256;7.152;2023-02-28T12:10:21;29.90;22.80
19544;DHT22;9917;51.256;7.152;2023-02-28T12:13:03;30.20;22.40
19544;DHT22;9917;51.256;7.152;2023-02-28T12:15:42;31.20;21.90
19544;DHT22;9917;51.256;7.152;2023-02-28T12:18:42;30.70;21.70
19544;DHT22;9917;51.256;7.152;2023-02-28T12:21:18;30.30;21.20
19544;DHT22;9917;51.256;7.152;2023-02-28T12:24:02;30.00;21.80
19544;DHT22;9917;51.256;7.152;2023-02-28T12:26:37;30.30;21.30
19544;DHT22;9917;51.256;7.152;2023-02-28T12:29:11;29.40;21.30
19544;DHT22;9917;51.256;7.152;2023-02-28T12:31:41;28.50;21.80
19544;DHT22;9917;51.256;7.152;2023-02-28T12:34:17;27.20;22.80
19544;DHT22;9917;51.256;7.152;2023-02-28T12:36:45;26.10;23.90
19544;DHT22;9917;51.256;7.152;2023-02-28T12:39:15;26.00;23.50
19544;DHT22;9917;51.256;7.152;2023-02-28T12:41:47;26.30;23.80
19544;DHT22;9917;51.256;7.152;2023-02-28T12:44:18;27.30;23.30
19544;DHT22;9917;51.256;7.152;2023-02-28T12:46:47;27.70;23.50
19544;DHT22;9917;51.256;7.152;2023-02-28T12:49:17;27.70;22.70
19544;DHT22;9917;51.256;7.152;2023-02-28T12:51:44;27.70;23.10
19544;DHT22;9917;51.256;7.152;2023-02-28T12:54:16;28.30;23.50
19544;DHT22;9917;51.256;7.152;2023-02-28T12:56:50;29.20;22.70
19544;DHT22;9917;51.256;7.152;2023-02-28T12:59:24;29.60;21.90
19544;DHT22;9917;51.256;7.152;2023-02-28T13:02:02;28.30;22.60
19544;DHT22;9917;51.256;7.152;2023-02-28T13:04:59;27.50;22.60
19544;DHT22;9917;51.256;7.152;2023-02-28T13:07:59;27.10;23.30
19544;DHT22;9917;51.256;7.152;2023-02-28T13:10:39;26.80;23.30
19544;DHT22;9917;51.256;7.152;2023-02-28T13:13:14;26.90;23.20
19544;DHT22;9917;51.256;7.152;2023-02-28T13:15:41;27.50;23.50
19544;DHT22;9917;51.256;7.152;2023-02-28T13:18:35;28.10;22.90
19544;DHT22;9917;51.256;7.152;2023-02-28T13:21:01;27.90;23.50
19544;DHT22;9917;51.256;7.152;2023-02-28T13:26:23;28.20;22.80
19544;DHT22;9917;51.256;7.152;2023-02-28T13:29:27;28.20;22.40
19544;DHT22;9917;51.256;7.152;2023-02-28T13:32:19;27.80;22.60
19544;DHT22;9917;51.256;7.152;2023-02-28T13:40:50;28.00;22.60
19544;DHT22;9917;51.256;7.152;2023-02-28T13:43:18;27.50;22.60
19544;DHT22;9917;51.256;7.152;2023-02-28T13:46:07;26.90;23.00
19544;DHT22;9917;51.256;7.152;2023-02-28T13:48:38;27.00;22.90
19544;DHT22;9917;51.256;7.152;2023-02-28T13:54:18;26.80;22.60
19544;DHT22;9917;51.256;7.152;2023-02-28T13:56:57;26.70;22.80
19544;DHT22;9917;51.256;7.152;2023-02-28T13:59:33;26.90;22.90
19544;DHT22;9917;51.256;7.152;2023-02-28T14:02:27;26.60;23.10
19544;DHT22;9917;51.256;7.152;2023-02-28T14:05:05;26.60;23.30
19544;DHT22;9917;51.256;7.152;2023-02-28T14:07:33;27.00;22.90
19544;DHT22;9917;51.256;7.152;2023-02-28T14:10:04;27.00;23.50
19544;DHT22;9917;51.256;7.152;2023-02-28T14:12:52;27.00;23.00
19544;DHT22;9917;51.256;7.152;2023-02-28T14:15:49;26.70;23.50
19544;DHT22;9917;51.256;7.152;2023-02-28T14:18:27;26.80;23.10
19544;DHT22;9917;51.256;7.152;2023-02-28T14:21:01;26.50;22.80
19544;DHT22;9917;51.256;7.152;2023-02-28T14:27:08;25.30;24.60
19544;DHT22;9917;51.256;7.152;2023-02-28T14:32:37;24.30;24.80
19544;DHT22;9917;51.256;7.152;2023-02-28T14:35:27;24.60;24.40
19544;DHT22;9917;51.256;7.152;2023-02-28T14:37:56;24.80;24.20
19544;DHT22;9917;51.256;7.152;2023-02-28T14:40:27;25.00;25.20
19544;DHT22;9917;51.256;7.152;2023-02-28T14:42:56;25.30;24.40
19544;DHT22;9917;51.256;7.152;2023-02-28T14:45:23;25.00;24.10
19544;DHT22;9917;51.256;7.152;2023-02-28T14:47:49;24.70;24.80
19544;DHT22;9917;51.256;7.152;2023-02-28T14:50:23;24.40;25.10
19544;DHT22;9917;51.256;7.152;2023-02-28T14:52:52;23.80;24.90
19544;DHT22;9917;51.256;7.152;2023-02-28T14:55:19;23.50;25.90
19544;DHT22;9917;51.256;7.152;2023-02-28T14:57:52;23.00;25.80
19544;DHT22;9917;51.256;7.152;2023-02-28T15:00:22;22.10;26.10
19544;DHT22;9917;51.256;7.152;2023-02-28T15:02:49;21.50;26.30
19544;DHT22;9917;51.256;7.152;2023-02-28T15:05:26;21.80;26.80
19544;DHT22;9917;51.256;7.152;2023-02-28T15:08:05;20.00;28.40
19544;DHT22;9917;51.256;7.152;2023-02-28T15:10:32;18.40;28.50
19544;DHT22;9917;51.256;7.152;2023-02-28T15:13:00;17.30;30.40
19544;DHT22;9917;51.256;7.152;2023-02-28T15:15:35;16.50;30.00
19544;DHT22;9917;51.256;7.152;2023-02-28T15:18:05;15.70;31.90
19544;DHT22;9917;51.256;7.152;2023-02-28T15:20:35;14.90;32.70
19544;DHT22;9917;51.256;7.152;2023-02-28T15:23:02;14.20;34.60
19544;DHT22;9917;51.256;7.152;2023-02-28T15:27:55;13.50;36.70
19544;DHT22;9917;51.256;7.152;2023-02-28T15:30:25;13.30;37.20
19544;DHT22;9917;51.256;7.152;2023-02-28T15:33:17;12.80;37.60
19544;DHT22;9917;51.256;7.152;2023-02-28T15:35:45;12.70;37.80
19544;DHT22;9917;51.256;7.152;2023-02-28T15:38:17;12.10;38.90
19544;DHT22;9917;51.256;7.152;2023-02-28T15:40:44;12.50;39.00
19544;DHT22;9917;51.256;7.152;2023-02-28T15:43:14;12.20;39.00
19544;DHT22;9917;51.256;7.152;2023-02-28T15:45:44;11.80;40.10
19544;DHT22;9917;51.256;7.152;2023-02-28T15:48:18;11.80;40.70
19544;DHT22;9917;51.256;7.152;2023-02-28T15:50:51;11.20;41.60
19544;DHT22;9917;51.256;7.152;2023-02-28T15:53:24;11.00;41.70
19544;DHT22;9917;51.256;7.152;2023-02-28T15:55:58;11.00;42.20
19544;DHT22;9917;51.256;7.152;2023-02-28T15:58:24;10.50;42.80
19544;DHT22;9917;51.256;7.152;2023-02-28T16:01:04;10.80;43.60
19544;DHT22;9917;51.256;7.152;2023-02-28T16:03:39;10.00;44.90
19544;DHT22;9917;51.256;7.152;2023-02-28T16:09:01;9.80;45.40
19544;DHT22;9917;51.256;7.152;2023-02-28T16:11:27;9.50;45.70
19544;DHT22;9917;51.256;7.152;2023-02-28T16:16:21;9.40;47.50
19544;DHT22;9917;51.256;7.152;2023-02-28T16:18:47;9.50;47.40
19544;DHT22;9917;51.256;7.152;2023-02-28T16:21:15;9.20;47.70
19544;DHT22;9917;51.256;7.152;2023-02-28T16:23:40;9.30;47.70
19544;DHT22;9917;51.256;7.152;2023-02-28T16:26:06;9.20;48.60
19544;DHT22;9917;51.256;7.152;2023-02-28T16:28:34;8.70;48.90
19544;DHT22;9917;51.256;7.152;2023-02-28T16:31:03;8.60;49.00
19544;DHT22;9917;51.256;7.152;2023-02-28T16:33:31;8.40;50.20
19544;DHT22;9917;51.256;7.152;2023-02-28T16:35:57;8.10;50.40
19544;DHT22;9917;51.256;7.152;2023-02-28T16:38:24;8.10;50.00
19544;DHT22;9917;51.256;7.152;2023-02-28T16:40:50;8.30;50.80
19544;DHT22;9917;51.256;7.152;2023-02-28T16:43:17;8.30;51.20
19544;DHT22;9917;51.256;7.152;2023-02-28T16:45:44;8.50;51.90
19544;DHT22;9917;51.256;7.152;2023-02-28T16:48:13;7.80;51.90
19544;DHT22;9917;51.256;7.152;2023-02-28T16:50:39;8.00;51.60
19544;DHT22;9917;51.256;7.152;2023-02-28T16:53:05;8.00;52.00
19544;DHT22;9917;51.256;7.152;2023-02-28T16:55:32;7.70;52.30
19544;DHT22;9917;51.256;7.152;2023-02-28T16:58:00;7.90;52.80